createdAt,value
2023-05-19T00:00:50.001Z,95444.00
2023-05-19T00:01:48.210Z,95446.00
2023-05-19T00:02:48.355Z,95446.00
2023-05-19T00:03:48.198Z,95441.00
2023-05-19T00:04:48.280Z,95442.00
2023-05-19T00:05:48.192Z,95442.00
2023-05-19T00:06:48.151Z,95440.00
2023-05-19T00:07:48.156Z,95438.00
2023-05-19T00:08:48.944Z,95436.00
2023-05-19T00:09:48.137Z,95435.00
2023-05-19T00:10:48.110Z,95436.00
2023-05-19T00:11:48.134Z,95435.00
2023-05-19T00:12:48.206Z,95434.00
2023-05-19T00:13:48.107Z,95436.00
2023-05-19T00:14:48.131Z,95437.00
2023-05-19T00:15:48.181Z,95436.00
2023-05-19T00:16:48.084Z,95436.00
2023-05-19T00:17:48.112Z,95437.00
2023-05-19T00:18:48.103Z,95437.00
2023-05-19T00:19:48.061Z,95438.00
2023-05-19T00:20:48.063Z,95439.00
2023-05-19T00:21:48.059Z,95439.00
2023-05-19T00:22:48.052Z,95441.00
2023-05-19T00:23:48.047Z,95441.00
2023-05-19T00:24:48.036Z,95441.00
2023-05-19T00:25:48.021Z,95441.00
2023-05-19T00:26:48.050Z,95441.00
2023-05-19T00:27:48.045Z,95442.00
2023-05-19T00:28:48.015Z,95442.00
2023-05-19T00:29:48.030Z,95441.00
2023-05-19T00:30:47.978Z,95443.00
2023-05-19T00:31:48.037Z,95441.00
2023-05-19T00:32:48.024Z,95442.00
2023-05-19T00:33:47.984Z,95442.00
2023-05-19T00:34:47.998Z,95442.00
2023-05-19T00:35:47.997Z,95443.00
2023-05-19T00:36:47.969Z,95443.00
2023-05-19T00:37:47.949Z,95442.00
2023-05-19T00:38:47.945Z,95444.00
2023-05-19T00:39:47.948Z,95443.00
2023-05-19T00:40:47.945Z,95441.00
2023-05-19T00:41:47.924Z,95442.00
2023-05-19T00:42:47.916Z,95438.00
2023-05-19T00:43:47.923Z,95441.00
2023-05-19T00:44:47.922Z,95437.00
2023-05-19T00:45:47.910Z,95436.00
2023-05-19T00:46:47.978Z,95437.00
2023-05-19T00:47:47.889Z,95435.00
2023-05-19T00:48:47.897Z,95435.00
2023-05-19T00:49:47.876Z,95437.00
2023-05-19T00:50:47.866Z,95432.00
2023-05-19T00:51:47.856Z,95434.00
2023-05-19T00:52:47.872Z,95431.00
2023-05-19T00:53:47.839Z,95430.00
2023-05-19T00:54:47.842Z,95429.00
2023-05-19T00:55:47.843Z,95430.00
2023-05-19T00:56:47.836Z,95429.00
2023-05-19T00:57:47.826Z,95428.00
2023-05-19T00:58:47.807Z,95426.00
2023-05-19T00:59:47.816Z,95424.00
2023-05-19T01:00:47.870Z,95426.00
2023-05-19T01:01:47.879Z,95427.00
2023-05-19T01:02:47.960Z,95426.00
2023-05-19T01:03:48.060Z,95427.00
2023-05-19T01:04:47.960Z,95426.00
2023-05-19T01:05:47.964Z,95427.00
2023-05-19T01:06:48.012Z,95430.00
2023-05-19T01:07:48.023Z,95432.00
2023-05-19T01:08:48.055Z,95428.00
2023-05-19T01:09:48.980Z,95428.00
2023-05-19T01:10:48.117Z,95428.00
2023-05-19T01:11:48.100Z,95428.00
2023-05-19T01:12:48.142Z,95428.00
2023-05-19T01:13:48.160Z,95427.00
2023-05-19T01:14:48.202Z,95427.00
2023-05-19T01:15:48.216Z,95425.00
2023-05-19T01:16:48.276Z,95426.00
2023-05-19T01:17:48.285Z,95426.00
2023-05-19T01:18:48.318Z,95428.00
2023-05-19T01:19:48.303Z,95426.00
2023-05-19T01:20:48.335Z,95425.00
2023-05-19T01:21:48.344Z,95425.00
2023-05-19T01:22:48.381Z,95425.00
2023-05-19T01:23:48.390Z,95426.00
2023-05-19T01:24:48.428Z,95423.00
2023-05-19T01:25:48.471Z,95424.00
2023-05-19T01:26:48.494Z,95424.00
2023-05-19T01:27:48.515Z,95423.00
2023-05-19T01:28:48.521Z,95426.00
2023-05-19T01:29:48.562Z,95426.00
2023-05-19T01:30:48.612Z,95426.00
2023-05-19T01:31:48.643Z,95424.00
2023-05-19T01:32:48.696Z,95422.00
2023-05-19T01:33:48.679Z,95426.00
2023-05-19T01:34:48.704Z,95425.00
2023-05-19T01:35:48.731Z,95424.00
2023-05-19T01:36:48.780Z,95425.00
2023-05-19T01:37:48.767Z,95425.00
2023-05-19T01:38:48.789Z,95424.00
2023-05-19T01:39:48.811Z,95423.00
2023-05-19T01:40:48.909Z,95423.00
2023-05-19T01:41:48.895Z,95423.00
2023-05-19T01:42:48.911Z,95425.00
2023-05-19T01:43:48.912Z,95425.00
2023-05-19T01:44:48.986Z,95422.00
2023-05-19T01:45:49.094Z,95424.00
2023-05-19T01:46:49.021Z,95422.00
2023-05-19T01:47:49.057Z,95422.00
2023-05-19T01:48:49.090Z,95424.00
2023-05-19T01:49:49.128Z,95426.00
2023-05-19T01:50:49.149Z,95425.00
2023-05-19T01:51:49.187Z,95426.00
2023-05-19T01:52:49.224Z,95423.00
2023-05-19T01:53:49.253Z,95425.00
2023-05-19T01:54:49.297Z,95425.00
2023-05-19T01:55:49.326Z,95423.00
2023-05-19T01:56:49.371Z,95425.00
2023-05-19T01:57:49.388Z,95425.00
2023-05-19T01:58:49.424Z,95423.00
2023-05-19T01:59:49.470Z,95427.00
2023-05-19T02:00:49.463Z,95428.00
2023-05-19T02:01:49.517Z,95426.00
2023-05-19T02:02:49.587Z,95427.00
2023-05-19T02:03:49.580Z,95426.00
2023-05-19T02:04:49.649Z,95425.00
2023-05-19T02:05:49.634Z,95427.00
2023-05-19T02:06:49.703Z,95427.00
2023-05-19T02:07:49.686Z,95428.00
2023-05-19T02:08:49.749Z,95429.00
2023-05-19T02:09:49.783Z,95429.00
2023-05-19T02:10:49.828Z,95429.00
2023-05-19T02:11:49.838Z,95430.00
2023-05-19T02:12:49.845Z,95428.00
2023-05-19T02:13:49.892Z,95429.00
2023-05-19T02:14:49.917Z,95430.00
2023-05-19T02:15:50.001Z,95429.00
2023-05-19T02:16:50.018Z,95434.00
2023-05-19T02:17:50.056Z,95433.00
2023-05-19T02:18:50.094Z,95435.00
2023-05-19T02:19:50.074Z,95433.00
2023-05-19T02:20:50.129Z,95434.00
2023-05-19T02:21:50.147Z,95436.00
2023-05-19T02:22:50.204Z,95436.00
2023-05-19T02:23:50.221Z,95434.00
2023-05-19T02:24:50.215Z,95436.00
2023-05-19T02:25:50.242Z,95434.00
2023-05-19T02:26:50.273Z,95433.00
2023-05-19T02:27:50.329Z,95435.00
2023-05-19T02:28:50.344Z,95431.00
2023-05-19T02:29:50.379Z,95433.00
2023-05-19T02:30:50.422Z,95432.00
2023-05-19T02:31:50.580Z,95434.00
2023-05-19T02:32:50.499Z,95434.00
2023-05-19T02:33:50.493Z,95434.00
2023-05-19T02:34:50.550Z,95436.00
2023-05-19T02:35:50.591Z,95438.00
2023-05-19T02:36:50.606Z,95435.00
2023-05-19T02:37:50.622Z,95434.00
2023-05-19T02:38:50.661Z,95432.00
2023-05-19T02:39:50.687Z,95432.00
2023-05-19T02:40:50.732Z,95431.00
2023-05-19T02:41:50.790Z,95432.00
2023-05-19T02:42:50.765Z,95432.00
2023-05-19T02:43:50.801Z,95429.00
2023-05-19T02:44:50.864Z,95434.00
2023-05-19T02:45:50.857Z,95429.00
2023-05-19T02:46:51.008Z,95430.00
2023-05-19T02:47:50.996Z,95429.00
2023-05-19T02:48:51.011Z,95430.00
2023-05-19T02:49:50.984Z,95431.00
2023-05-19T02:50:51.021Z,95430.00
2023-05-19T02:51:51.067Z,95428.00
2023-05-19T02:52:51.081Z,95425.00
2023-05-19T02:53:51.114Z,95426.00
2023-05-19T02:54:51.168Z,95425.00
2023-05-19T02:55:51.188Z,95425.00
2023-05-19T02:56:51.252Z,95424.00
2023-05-19T02:57:51.273Z,95423.00
2023-05-19T02:58:51.321Z,95424.00
2023-05-19T02:59:51.310Z,95426.00
2023-05-19T03:00:51.339Z,95423.00
2023-05-19T03:01:51.389Z,95422.00
2023-05-19T03:02:51.479Z,95421.00
2023-05-19T03:03:51.561Z,95421.00
2023-05-19T03:04:51.463Z,95418.00
2023-05-19T03:05:51.535Z,95418.00
2023-05-19T03:06:51.554Z,95419.00
2023-05-19T03:07:51.580Z,95416.00
2023-05-19T03:08:51.607Z,95415.00
2023-05-19T03:09:51.669Z,95413.00
2023-05-19T03:10:51.669Z,95412.00
2023-05-19T03:11:51.706Z,95413.00
2023-05-19T03:12:51.736Z,95412.00
2023-05-19T03:13:51.786Z,95413.00
2023-05-19T03:14:51.863Z,95414.00
2023-05-19T03:15:51.857Z,95414.00
2023-05-19T03:16:52.051Z,95414.00
2023-05-19T03:17:52.022Z,95411.00
2023-05-19T03:18:51.970Z,95413.00
2023-05-19T03:19:52.028Z,95413.00
2023-05-19T03:20:52.022Z,95413.00
2023-05-19T03:21:52.071Z,95415.00
2023-05-19T03:22:52.112Z,95412.00
2023-05-19T03:23:52.109Z,95414.00
2023-05-19T03:24:52.160Z,95414.00
2023-05-19T03:25:52.203Z,95411.00
2023-05-19T03:26:52.243Z,95410.00
2023-05-19T03:27:52.239Z,95410.00
2023-05-19T03:28:52.333Z,95412.00
2023-05-19T03:29:52.410Z,95413.00
2023-05-19T03:30:52.337Z,95413.00
2023-05-19T03:31:52.427Z,95412.00
2023-05-19T03:32:52.501Z,95414.00
2023-05-19T03:33:52.479Z,95412.00
2023-05-19T03:34:52.507Z,95413.00
2023-05-19T03:35:52.550Z,95413.00
2023-05-19T03:36:52.558Z,95414.00
2023-05-19T03:37:52.601Z,95412.00
2023-05-19T03:38:52.665Z,95415.00
2023-05-19T03:39:52.681Z,95413.00
2023-05-19T03:40:52.697Z,95413.00
2023-05-19T03:41:52.717Z,95414.00
2023-05-19T03:42:52.762Z,95412.00
2023-05-19T03:43:52.769Z,95411.00
2023-05-19T03:44:52.808Z,95412.00
2023-05-19T03:45:53.011Z,95413.00
2023-05-19T03:46:52.880Z,95412.00
2023-05-19T03:47:52.964Z,95410.00
2023-05-19T03:48:52.964Z,95410.00
2023-05-19T03:49:52.973Z,95412.00
2023-05-19T03:50:53.023Z,95410.00
2023-05-19T03:51:53.053Z,95409.00
2023-05-19T03:52:53.089Z,95411.00
2023-05-19T03:53:53.136Z,95411.00
2023-05-19T03:54:53.132Z,95412.00
2023-05-19T03:55:53.196Z,95412.00
2023-05-19T03:56:53.237Z,95415.00
2023-05-19T03:57:53.255Z,95415.00
2023-05-19T03:58:53.248Z,95419.00
2023-05-19T03:59:53.267Z,95419.00
2023-05-19T04:00:53.281Z,95420.00
2023-05-19T04:01:53.495Z,95420.00
2023-05-19T04:02:53.488Z,95421.00
2023-05-19T04:03:53.383Z,95422.00
2023-05-19T04:04:53.487Z,95419.00
2023-05-19T04:05:53.484Z,95418.00
2023-05-19T04:06:53.496Z,95415.00
2023-05-19T04:07:53.494Z,95414.00
2023-05-19T04:08:53.533Z,95414.00
2023-05-19T04:09:53.616Z,95413.00
2023-05-19T04:10:53.645Z,95415.00
2023-05-19T04:11:53.651Z,95414.00
2023-05-19T04:12:53.727Z,95413.00
2023-05-19T04:13:53.744Z,95414.00
2023-05-19T04:14:53.802Z,95412.00
2023-05-19T04:15:53.834Z,95411.00
2023-05-19T04:16:53.856Z,95410.00
2023-05-19T04:17:54.543Z,95409.00
2023-05-19T04:18:53.956Z,95412.00
2023-05-19T04:19:53.988Z,95412.00
2023-05-19T04:20:54.000Z,95413.00
2023-05-19T04:21:54.051Z,95414.00
2023-05-19T04:22:54.088Z,95415.00
2023-05-19T04:23:54.112Z,95414.00
2023-05-19T04:24:54.145Z,95417.00
2023-05-19T04:25:54.217Z,95417.00
2023-05-19T04:26:54.258Z,95417.00
2023-05-19T04:27:54.279Z,95418.00
2023-05-19T04:28:54.294Z,95420.00
2023-05-19T04:29:54.313Z,95419.00
2023-05-19T04:30:54.386Z,95422.00
2023-05-19T04:31:54.386Z,95424.00
2023-05-19T04:32:54.508Z,95426.00
2023-05-19T04:33:54.456Z,95425.00
2023-05-19T04:34:54.507Z,95425.00
2023-05-19T04:35:54.528Z,95422.00
2023-05-19T04:36:54.594Z,95423.00
2023-05-19T04:37:54.595Z,95424.00
2023-05-19T04:38:54.650Z,95426.00
2023-05-19T04:39:54.654Z,95426.00
2023-05-19T04:40:54.691Z,95425.00
2023-05-19T04:41:54.750Z,95426.00
2023-05-19T04:42:54.785Z,95427.00
2023-05-19T04:43:54.797Z,95427.00
2023-05-19T04:44:54.844Z,95429.00
2023-05-19T04:45:54.880Z,95427.00
2023-05-19T04:46:54.938Z,95427.00
2023-05-19T04:47:54.955Z,95429.00
2023-05-19T04:48:54.979Z,95428.00
2023-05-19T04:49:55.037Z,95427.00
2023-05-19T04:50:55.045Z,95423.00
2023-05-19T04:51:55.976Z,95424.00
2023-05-19T04:52:55.103Z,95423.00
2023-05-19T04:53:55.156Z,95423.00
2023-05-19T04:54:55.194Z,95424.00
2023-05-19T04:55:55.214Z,95425.00
2023-05-19T04:56:55.257Z,95425.00
2023-05-19T04:57:55.300Z,95428.00
2023-05-19T04:58:55.306Z,95424.00
2023-05-19T04:59:55.372Z,95424.00
2023-05-19T05:00:55.390Z,95421.00
2023-05-19T05:01:55.537Z,95419.00
2023-05-19T05:02:55.576Z,95419.00
2023-05-19T05:03:55.590Z,95419.00
2023-05-19T05:04:55.508Z,95422.00
2023-05-19T05:05:55.578Z,95421.00
2023-05-19T05:06:55.594Z,95423.00
2023-05-19T05:07:55.634Z,95427.00
2023-05-19T05:08:55.645Z,95427.00
2023-05-19T05:09:55.685Z,95426.00
2023-05-19T05:10:55.686Z,95427.00
2023-05-19T05:11:55.728Z,95422.00
2023-05-19T05:12:55.807Z,95420.00
2023-05-19T05:13:55.785Z,95420.00
2023-05-19T05:14:55.848Z,95421.00
2023-05-19T05:15:55.877Z,95423.00
2023-05-19T05:16:55.881Z,95423.00
2023-05-19T05:17:55.968Z,95423.00
2023-05-19T05:18:56.009Z,95424.00
2023-05-19T05:19:55.999Z,95424.00
2023-05-19T05:20:56.050Z,95422.00
2023-05-19T05:21:56.062Z,95419.00
2023-05-19T05:22:56.105Z,95419.00
2023-05-19T05:23:56.110Z,95417.00
2023-05-19T05:24:56.155Z,95417.00
2023-05-19T05:25:56.174Z,95416.00
2023-05-19T05:26:56.214Z,95415.00
2023-05-19T05:27:56.267Z,95412.00
2023-05-19T05:28:56.291Z,95414.00
2023-05-19T05:29:58.621Z,95414.00
2023-05-19T05:30:56.285Z,95416.00
2023-05-19T05:31:56.293Z,95416.00
2023-05-19T05:32:56.335Z,95417.00
2023-05-19T05:33:56.268Z,95417.00
2023-05-19T05:34:56.261Z,95416.00
2023-05-19T05:35:56.282Z,95415.00
2023-05-19T05:36:56.259Z,95415.00
2023-05-19T05:37:56.231Z,95411.00
2023-05-19T05:38:56.239Z,95411.00
2023-05-19T05:39:56.232Z,95412.00
2023-05-19T05:40:56.210Z,95410.00
2023-05-19T05:41:56.216Z,95412.00
2023-05-19T05:42:56.203Z,95412.00
2023-05-19T05:43:56.184Z,95412.00
2023-05-19T05:44:56.191Z,95412.00
2023-05-19T05:45:56.261Z,95412.00
2023-05-19T05:46:56.182Z,95412.00
2023-05-19T05:47:56.238Z,95411.00
2023-05-19T05:48:56.196Z,95410.00
2023-05-19T05:49:56.157Z,95410.00
2023-05-19T05:51:40.751Z,95410.00
2023-05-19T05:52:40.556Z,95409.00
2023-05-19T05:53:40.531Z,95408.00
2023-05-19T05:54:40.510Z,95408.00
2023-05-19T05:55:40.548Z,95405.00
2023-05-19T05:56:40.561Z,95408.00
2023-05-19T05:57:40.524Z,95405.00
2023-05-19T05:58:40.523Z,95403.00
2023-05-19T05:59:40.483Z,95406.00
2023-05-19T06:00:40.498Z,95408.00
2023-05-19T06:01:40.488Z,95407.00
2023-05-19T06:02:40.595Z,95405.00
2023-05-19T06:03:40.505Z,95404.00
2023-05-19T06:04:40.456Z,95405.00
2023-05-19T06:05:40.492Z,95405.00
2023-05-19T06:06:40.562Z,95405.00
2023-05-19T06:07:40.438Z,95401.00
2023-05-19T06:08:40.420Z,95401.00
2023-05-19T06:09:40.468Z,95401.00
2023-05-19T06:10:40.442Z,95403.00
2023-05-19T06:11:40.443Z,95402.00
2023-05-19T06:12:40.415Z,95404.00
2023-05-19T06:13:40.423Z,95402.00
2023-05-19T06:14:40.386Z,95401.00
2023-05-19T06:15:40.438Z,95401.00
2023-05-19T06:16:40.474Z,95401.00
2023-05-19T06:17:40.385Z,95404.00
2023-05-19T06:18:40.471Z,95402.00
2023-05-19T06:19:40.368Z,95407.00
2023-05-19T06:20:40.377Z,95409.00
2023-05-19T06:21:40.373Z,95409.00
2023-05-19T06:22:40.368Z,95409.00
2023-05-19T06:23:40.330Z,95408.00
2023-05-19T06:24:40.329Z,95407.00
2023-05-19T06:25:40.387Z,95408.00
2023-05-19T06:26:40.318Z,95409.00
2023-05-19T06:27:40.317Z,95410.00
2023-05-19T06:28:40.296Z,95409.00
2023-05-19T06:29:40.348Z,95412.00
2023-05-19T06:30:40.348Z,95410.00
2023-05-19T06:31:40.409Z,95407.00
2023-05-19T06:32:40.451Z,95405.00
2023-05-19T06:33:40.451Z,95404.00
2023-05-19T06:34:40.523Z,95402.00
2023-05-19T06:35:40.516Z,95400.00
2023-05-19T06:36:40.525Z,95400.00
2023-05-19T06:37:40.566Z,95399.00
2023-05-19T06:38:40.588Z,95400.00
2023-05-19T06:39:40.636Z,95400.00
2023-05-19T06:40:40.667Z,95401.00
2023-05-19T06:41:40.739Z,95400.00
2023-05-19T06:42:40.721Z,95400.00
2023-05-19T06:43:40.749Z,95399.00
2023-05-19T06:44:40.758Z,95399.00
2023-05-19T06:45:40.816Z,95398.00
2023-05-19T06:46:40.841Z,95399.00
2023-05-19T06:47:40.884Z,95400.00
2023-05-19T06:48:40.883Z,95400.00
2023-05-19T06:49:40.906Z,95401.00
2023-05-19T06:50:40.945Z,95402.00
2023-05-19T06:51:40.947Z,95400.00
2023-05-19T06:52:40.996Z,95402.00
2023-05-19T06:53:41.042Z,95399.00
2023-05-19T06:54:41.056Z,95398.00
2023-05-19T06:55:54.341Z,95398.00
2023-05-19T06:56:42.098Z,95401.00
2023-05-19T06:57:41.068Z,95398.00
2023-05-19T06:58:41.055Z,95399.00
2023-05-19T06:59:41.036Z,95396.00
2023-05-19T07:00:41.068Z,95394.00
2023-05-19T07:01:41.079Z,95393.00
2023-05-19T07:02:41.125Z,95393.00
2023-05-19T07:03:41.161Z,95392.00
2023-05-19T07:04:41.005Z,95392.00
2023-05-19T07:05:41.046Z,95393.00
2023-05-19T07:06:41.008Z,95394.00
2023-05-19T07:07:41.002Z,95394.00
2023-05-19T07:08:40.970Z,95393.00
2023-05-19T07:09:40.964Z,95394.00
2023-05-19T07:10:40.997Z,95392.00
2023-05-19T07:11:40.989Z,95393.00
2023-05-19T07:12:41.028Z,95394.00
2023-05-19T07:13:40.978Z,95394.00
2023-05-19T07:14:40.961Z,95396.00
2023-05-19T07:15:41.019Z,95395.00
2023-05-19T07:16:41.094Z,95395.00
2023-05-19T07:17:41.066Z,95393.00
2023-05-19T07:18:41.114Z,95394.00
2023-05-19T07:19:41.112Z,95393.00
2023-05-19T07:20:41.148Z,95392.00
2023-05-19T07:21:41.159Z,95393.00
2023-05-19T07:22:41.180Z,95394.00
2023-05-19T07:23:41.218Z,95392.00
2023-05-19T07:24:41.253Z,95390.00
2023-05-19T07:25:41.253Z,95391.00
2023-05-19T07:26:41.290Z,95390.00
2023-05-19T07:27:41.337Z,95388.00
2023-05-19T07:28:41.713Z,95386.00
2023-05-19T07:29:41.478Z,95386.00
2023-05-19T07:30:41.376Z,95383.00
2023-05-19T07:31:41.461Z,95382.00
2023-05-19T07:32:41.474Z,95382.00
2023-05-19T07:33:41.480Z,95380.00
2023-05-19T07:34:41.506Z,95379.00
2023-05-19T07:35:41.536Z,95378.00
2023-05-19T07:36:41.559Z,95375.00
2023-05-19T07:37:41.587Z,95376.00
2023-05-19T07:38:41.667Z,95378.00
2023-05-19T07:39:41.638Z,95374.00
2023-05-19T07:40:41.683Z,95374.00
2023-05-19T07:41:41.707Z,95374.00
2023-05-19T07:42:41.706Z,95375.00
2023-05-19T07:43:41.751Z,95373.00
2023-05-19T07:44:41.762Z,95372.00
2023-05-19T07:45:41.813Z,95371.00
2023-05-19T07:46:41.802Z,95370.00
2023-05-19T07:47:41.825Z,95371.00
2023-05-19T07:48:41.866Z,95370.00
2023-05-19T07:49:41.884Z,95370.00
2023-05-19T07:50:41.933Z,95371.00
2023-05-19T07:51:41.964Z,95368.00
2023-05-19T07:52:41.963Z,95367.00
2023-05-19T07:53:41.974Z,95366.00
2023-05-19T07:54:42.030Z,95364.00
2023-05-19T07:55:42.084Z,95362.00
2023-05-19T07:56:42.099Z,95362.00
2023-05-19T07:57:42.136Z,95362.00
2023-05-19T07:58:42.147Z,95362.00
2023-05-19T07:59:42.174Z,95358.00
2023-05-19T08:00:42.207Z,95358.00
2023-05-19T08:01:42.273Z,95357.00
2023-05-19T08:02:42.371Z,95358.00
2023-05-19T08:03:42.356Z,95356.00
2023-05-19T08:04:42.387Z,95358.00
2023-05-19T08:05:42.348Z,95357.00
2023-05-19T08:06:42.360Z,95355.00
2023-05-19T08:07:42.398Z,95352.00
2023-05-19T08:08:42.433Z,95350.00
2023-05-19T08:09:42.494Z,95347.00
2023-05-19T08:10:42.496Z,95350.00
2023-05-19T08:11:42.547Z,95351.00
2023-05-19T08:12:42.546Z,95349.00
2023-05-19T08:13:42.611Z,95350.00
2023-05-19T08:14:42.642Z,95349.00
2023-05-19T08:15:42.771Z,95347.00
2023-05-19T08:16:42.750Z,95347.00
2023-05-19T08:17:42.830Z,95344.00
2023-05-19T08:18:42.786Z,95345.00
2023-05-19T08:19:42.798Z,95341.00
2023-05-19T08:20:42.859Z,95342.00
2023-05-19T08:21:42.853Z,95345.00
2023-05-19T08:22:42.872Z,95344.00
2023-05-19T08:23:42.944Z,95341.00
2023-05-19T08:24:42.944Z,95341.00
2023-05-19T08:25:42.960Z,95340.00
2023-05-19T08:26:43.016Z,95340.00
2023-05-19T08:27:43.052Z,95338.00
2023-05-19T08:28:43.081Z,95339.00
2023-05-19T08:29:43.108Z,95338.00
2023-05-19T08:30:43.139Z,95335.00
2023-05-19T08:31:43.182Z,95335.00
2023-05-19T08:32:43.221Z,95334.00
2023-05-19T08:33:43.345Z,95334.00
2023-05-19T08:34:43.253Z,95331.00
2023-05-19T08:35:43.291Z,95329.00
2023-05-19T08:36:43.342Z,95329.00
2023-05-19T08:37:43.337Z,95327.00
2023-05-19T08:38:43.368Z,95326.00
2023-05-19T08:39:43.394Z,95324.00
2023-05-19T08:40:43.432Z,95323.00
2023-05-19T08:41:43.454Z,95323.00
2023-05-19T08:42:43.463Z,95322.00
2023-05-19T08:43:43.496Z,95322.00
2023-05-19T08:44:43.548Z,95323.00
2023-05-19T08:45:43.555Z,95322.00
2023-05-19T08:46:43.636Z,95323.00
2023-05-19T08:47:43.633Z,95322.00
2023-05-19T08:48:43.632Z,95317.00
2023-05-19T08:49:43.630Z,95316.00
2023-05-19T08:50:43.691Z,95312.00
2023-05-19T08:51:43.690Z,95310.00
2023-05-19T08:52:45.359Z,95311.00
2023-05-19T08:53:43.702Z,95307.00
2023-05-19T08:54:43.673Z,95308.00
2023-05-19T08:55:43.679Z,95305.00
2023-05-19T08:56:43.672Z,95304.00
2023-05-19T08:57:43.668Z,95302.00
2023-05-19T08:58:43.775Z,95302.00
2023-05-19T08:59:43.650Z,95304.00
2023-05-19T09:00:43.754Z,95304.00
2023-05-19T09:01:43.657Z,95303.00
2023-05-19T09:02:54.950Z,95301.00
2023-05-19T09:03:44.755Z,95301.00
2023-05-19T09:04:43.726Z,95302.00
2023-05-19T09:05:43.643Z,95299.00
2023-05-19T09:06:43.610Z,95299.00
2023-05-19T09:07:43.596Z,95298.00
2023-05-19T09:08:43.586Z,95298.00
2023-05-19T09:09:43.607Z,95300.00
2023-05-19T09:10:43.579Z,95298.00
2023-05-19T09:11:43.552Z,95298.00
2023-05-19T09:12:43.572Z,95296.00
2023-05-19T09:13:43.579Z,95296.00
2023-05-19T09:14:43.534Z,95293.00
2023-05-19T09:15:43.543Z,95291.00
2023-05-19T09:16:43.568Z,95290.00
2023-05-19T09:17:43.604Z,95288.00
2023-05-19T09:18:43.538Z,95287.00
2023-05-19T09:19:43.520Z,95286.00
2023-05-19T09:20:43.544Z,95283.00
2023-05-19T09:21:44.651Z,95281.00
2023-05-19T09:22:43.487Z,95279.00
2023-05-19T09:23:43.487Z,95278.00
2023-05-19T09:24:43.508Z,95279.00
2023-05-19T09:25:43.520Z,95277.00
2023-05-19T09:26:43.566Z,95276.00
2023-05-19T09:27:43.561Z,95275.00
2023-05-19T09:28:43.589Z,95274.00
2023-05-19T09:29:43.635Z,95272.00
2023-05-19T09:30:43.654Z,95269.00
2023-05-19T09:31:43.708Z,95272.00
2023-05-19T09:32:43.846Z,95267.00
2023-05-19T09:33:45.884Z,95266.00
2023-05-19T09:34:43.780Z,95266.00
2023-05-19T09:35:43.817Z,95264.00
2023-05-19T09:36:43.862Z,95262.00
2023-05-19T09:37:43.870Z,95260.00
2023-05-19T09:38:43.910Z,95257.00
2023-05-19T09:39:43.914Z,95257.00
2023-05-19T09:40:43.915Z,95255.00
2023-05-19T09:41:43.974Z,95253.00
2023-05-19T09:42:43.997Z,95253.00
2023-05-19T09:43:43.990Z,95252.00
2023-05-19T09:44:44.046Z,95251.00
2023-05-19T09:45:44.115Z,95252.00
2023-05-19T09:46:44.288Z,95250.00
2023-05-19T09:47:44.184Z,95250.00
2023-05-19T09:48:44.161Z,95251.00
2023-05-19T09:49:44.188Z,95249.00
2023-05-19T09:50:44.210Z,95246.00
2023-05-19T09:51:44.226Z,95243.00
2023-05-19T09:52:44.325Z,95240.00
2023-05-19T09:53:44.285Z,95240.00
2023-05-19T09:54:44.319Z,95239.00
2023-05-19T09:55:44.318Z,95241.00
2023-05-19T09:56:44.365Z,95238.00
2023-05-19T09:57:44.356Z,95235.00
2023-05-19T09:58:44.411Z,95233.00
2023-05-19T09:59:44.421Z,95232.00
2023-05-19T10:00:44.420Z,95228.00
2023-05-19T10:01:44.477Z,95225.00
2023-05-19T10:02:44.506Z,95221.00
2023-05-19T10:03:44.507Z,95220.00
2023-05-19T10:04:44.577Z,95218.00
2023-05-19T10:05:44.531Z,95218.00
2023-05-19T10:06:44.579Z,95216.00
2023-05-19T10:07:44.618Z,95213.00
2023-05-19T10:08:44.610Z,95211.00
2023-05-19T10:09:44.624Z,95211.00
2023-05-19T10:10:44.655Z,95207.00
2023-05-19T10:11:44.702Z,95206.00
2023-05-19T10:12:44.702Z,95202.00
2023-05-19T10:13:45.325Z,95203.00
2023-05-19T10:14:44.760Z,95198.00
2023-05-19T10:15:57.396Z,95199.00
2023-05-19T10:16:45.810Z,95196.00
2023-05-19T10:17:44.808Z,95196.00
2023-05-19T10:18:44.806Z,95195.00
2023-05-19T10:19:44.739Z,95196.00
2023-05-19T10:20:44.741Z,95194.00
2023-05-19T10:21:44.747Z,95190.00
2023-05-19T10:22:44.746Z,95192.00
2023-05-19T10:23:44.769Z,95191.00
2023-05-19T10:24:44.724Z,95188.00
2023-05-19T10:25:44.760Z,95189.00
2023-05-19T10:26:44.746Z,95188.00
2023-05-19T10:27:44.695Z,95184.00
2023-05-19T10:28:44.707Z,95184.00
2023-05-19T10:29:44.727Z,95181.00
2023-05-19T10:30:44.698Z,95182.00
2023-05-19T10:31:44.731Z,95183.00
2023-05-19T10:32:44.717Z,95181.00
2023-05-19T10:33:44.678Z,95178.00
2023-05-19T10:34:44.658Z,95174.00
2023-05-19T10:35:45.394Z,95174.00
2023-05-19T10:36:44.721Z,95172.00
2023-05-19T10:37:44.719Z,95168.00
2023-05-19T10:38:44.775Z,95167.00
2023-05-19T10:39:44.748Z,95164.00
2023-05-19T10:40:44.799Z,95164.00
2023-05-19T10:41:45.129Z,95163.00
2023-05-19T10:42:44.860Z,95162.00
2023-05-19T10:43:44.836Z,95165.00
2023-05-19T10:44:44.900Z,95162.00
2023-05-19T10:46:06.952Z,95162.00
2023-05-19T10:47:07.033Z,95159.00
2023-05-19T10:48:07.049Z,95159.00
2023-05-19T10:49:06.927Z,95157.00
2023-05-19T10:50:06.962Z,95157.00
2023-05-19T10:51:06.909Z,95158.00
2023-05-19T10:52:06.925Z,95156.00
2023-05-19T10:53:06.940Z,95155.00
2023-05-19T10:54:06.900Z,95154.00
2023-05-19T10:55:06.897Z,95151.00
2023-05-19T10:56:06.960Z,95150.00
2023-05-19T10:57:06.961Z,95149.00
2023-05-19T10:58:06.894Z,95148.00
2023-05-19T10:59:06.870Z,95149.00
2023-05-19T11:00:06.880Z,95149.00
2023-05-19T11:01:06.844Z,95147.00
2023-05-19T11:02:06.983Z,95146.00
2023-05-19T11:03:06.988Z,95145.00
2023-05-19T11:04:06.952Z,95137.00
2023-05-19T11:05:06.844Z,95135.00
2023-05-19T11:06:06.808Z,95138.00
2023-05-19T11:07:06.840Z,95137.00
2023-05-19T11:08:06.801Z,95137.00
2023-05-19T11:09:06.805Z,95138.00
2023-05-19T11:10:06.785Z,95139.00
2023-05-19T11:11:06.769Z,95138.00
2023-05-19T11:12:06.783Z,95136.00
2023-05-19T11:13:06.919Z,95137.00
2023-05-19T11:14:06.760Z,95135.00
2023-05-19T11:15:06.778Z,95135.00
2023-05-19T11:16:06.769Z,95136.00
2023-05-19T11:17:06.848Z,95137.00
2023-05-19T11:18:06.782Z,95136.00
2023-05-19T11:19:06.744Z,95133.00
2023-05-19T11:20:06.716Z,95132.00
2023-05-19T11:21:06.770Z,95130.00
2023-05-19T11:22:06.728Z,95131.00
2023-05-19T11:23:06.722Z,95128.00
2023-05-19T11:24:06.689Z,95128.00
2023-05-19T11:25:06.711Z,95126.00
2023-05-19T11:26:06.686Z,95124.00
2023-05-19T11:27:06.672Z,95124.00
2023-05-19T11:28:06.660Z,95123.00
2023-05-19T11:29:06.650Z,95121.00
2023-05-19T11:30:06.742Z,95117.00
2023-05-19T11:31:06.616Z,95118.00
2023-05-19T11:32:06.671Z,95116.00
2023-05-19T11:33:06.646Z,95111.00
2023-05-19T11:34:06.627Z,95107.00
2023-05-19T11:35:06.630Z,95106.00
2023-05-19T11:36:06.639Z,95102.00
2023-05-19T11:37:06.633Z,95103.00
2023-05-19T11:38:06.624Z,95100.00
2023-05-19T11:39:06.594Z,95097.00
2023-05-19T11:40:06.568Z,95096.00
2023-05-19T11:41:06.561Z,95095.00
2023-05-19T11:42:06.582Z,95091.00
2023-05-19T11:43:06.570Z,95093.00
2023-05-19T11:44:06.577Z,95090.00
2023-05-19T11:45:06.562Z,95090.00
2023-05-19T11:46:06.604Z,95089.00